sensor_id;sensor_type;location;lat;lon;timestamp;P1;durP1;ratioP1;P2;durP2;ratioP2
72483;SDS011;74199;52.014;5.430;2023-11-21T00:02:21;15.55;;;7.70;;
72483;SDS011;74199;52.014;5.430;2023-11-21T00:04:48;12.40;;;6.78;;
72483;SDS011;74199;52.014;5.430;2023-11-21T00:07:15;11.15;;;6.72;;
72483;SDS011;74199;52.014;5.430;2023-11-21T00:09:43;14.55;;;7.32;;
72483;SDS011;74199;52.014;5.430;2023-11-21T00:12:10;13.40;;;7.63;;
72483;SDS011;74199;52.014;5.430;2023-11-21T00:14:37;15.90;;;7.18;;
72483;SDS011;74199;52.014;5.430;2023-11-21T00:17:07;16.48;;;8.05;;
72483;SDS011;74199;52.014;5.430;2023-11-21T00:19:35;16.30;;;8.45;;
72483;SDS011;74199;52.014;5.430;2023-11-21T00:22:02;19.50;;;8.50;;
72483;SDS011;74199;52.014;5.430;2023-11-21T00:24:29;14.30;;;8.25;;
72483;SDS011;74199;52.014;5.430;2023-11-21T00:26:59;18.25;;;9.18;;
72483;SDS011;74199;52.014;5.430;2023-11-21T00:29:26;19.65;;;8.52;;
72483;SDS011;74199;52.014;5.430;2023-11-21T00:31:53;24.00;;;9.25;;
72483;SDS011;74199;52.014;5.430;2023-11-21T00:34:20;18.45;;;9.00;;
72483;SDS011;74199;52.014;5.430;2023-11-21T00:36:47;19.25;;;9.25;;
72483;SDS011;74199;52.014;5.430;2023-11-21T00:39:14;20.50;;;9.50;;
72483;SDS011;74199;52.014;5.430;2023-11-21T00:41:41;20.45;;;9.85;;
72483;SDS011;74199;52.014;5.430;2023-11-21T00:44:11;17.90;;;9.95;;
72483;SDS011;74199;52.014;5.430;2023-11-21T00:46:38;20.10;;;8.65;;
72483;SDS011;74199;52.014;5.430;2023-11-21T00:49:05;17.52;;;9.52;;
72483;SDS011;74199;52.014;5.430;2023-11-21T00:51:32;21.88;;;9.05;;
72483;SDS011;74199;52.014;5.430;2023-11-21T00:53:59;14.88;;;8.05;;
72483;SDS011;74199;52.014;5.430;2023-11-21T00:56:26;17.23;;;8.75;;
72483;SDS011;74199;52.014;5.430;2023-11-21T00:58:53;16.33;;;8.50;;
72483;SDS011;74199;52.014;5.430;2023-11-21T01:01:21;17.50;;;8.68;;
72483;SDS011;74199;52.014;5.430;2023-11-21T01:03:49;14.05;;;8.25;;
72483;SDS011;74199;52.014;5.430;2023-11-21T01:06:16;16.73;;;8.25;;
72483;SDS011;74199;52.014;5.430;2023-11-21T01:08:43;14.02;;;8.23;;
72483;SDS011;74199;52.014;5.430;2023-11-21T01:11:11;13.48;;;7.88;;
72483;SDS011;74199;52.014;5.430;2023-11-21T01:13:42;16.50;;;8.13;;
72483;SDS011;74199;52.014;5.430;2023-11-21T01:16:09;12.65;;;7.25;;
72483;SDS011;74199;52.014;5.430;2023-11-21T01:18:36;12.23;;;7.65;;
72483;SDS011;74199;52.014;5.430;2023-11-21T01:21:03;12.15;;;7.25;;
72483;SDS011;74199;52.014;5.430;2023-11-21T01:23:30;12.27;;;7.30;;
72483;SDS011;74199;52.014;5.430;2023-11-21T01:25:57;10.23;;;6.03;;
72483;SDS011;74199;52.014;5.430;2023-11-21T01:28:24;13.65;;;7.55;;
72483;SDS011;74199;52.014;5.430;2023-11-21T01:30:51;8.82;;;5.30;;
72483;SDS011;74199;52.014;5.430;2023-11-21T01:33:23;12.13;;;6.22;;
72483;SDS011;74199;52.014;5.430;2023-11-21T01:35:51;12.90;;;6.80;;
72483;SDS011;74199;52.014;5.430;2023-11-21T01:38:21;10.23;;;6.32;;
72483;SDS011;74199;52.014;5.430;2023-11-21T01:40:48;9.73;;;6.15;;
72483;SDS011;74199;52.014;5.430;2023-11-21T01:43:15;10.27;;;5.78;;
72483;SDS011;74199;52.014;5.430;2023-11-21T01:45:43;10.00;;;6.35;;
72483;SDS011;74199;52.014;5.430;2023-11-21T01:48:12;8.88;;;5.90;;
72483;SDS011;74199;52.014;5.430;2023-11-21T01:50:40;8.35;;;5.20;;
72483;SDS011;74199;52.014;5.430;2023-11-21T01:53:07;8.50;;;5.43;;
72483;SDS011;74199;52.014;5.430;2023-11-21T01:55:35;7.35;;;5.55;;
72483;SDS011;74199;52.014;5.430;2023-11-21T01:58:02;10.57;;;5.72;;
72483;SDS011;74199;52.014;5.430;2023-11-21T02:00:30;6.07;;;4.30;;
72483;SDS011;74199;52.014;5.430;2023-11-21T02:02:57;7.05;;;4.93;;
72483;SDS011;74199;52.014;5.430;2023-11-21T02:05:26;8.50;;;5.00;;
72483;SDS011;74199;52.014;5.430;2023-11-21T02:07:53;7.03;;;4.30;;
72483;SDS011;74199;52.014;5.430;2023-11-21T02:10:20;5.95;;;4.30;;
72483;SDS011;74199;52.014;5.430;2023-11-21T02:12:51;6.60;;;3.92;;
72483;SDS011;74199;52.014;5.430;2023-11-21T02:15:18;5.28;;;3.80;;
72483;SDS011;74199;52.014;5.430;2023-11-21T02:17:50;7.78;;;4.32;;
72483;SDS011;74199;52.014;5.430;2023-11-21T02:20:21;5.68;;;4.20;;
72483;SDS011;74199;52.014;5.430;2023-11-21T02:22:52;7.90;;;4.75;;
72483;SDS011;74199;52.014;5.430;2023-11-21T02:25:28;6.30;;;4.40;;
72483;SDS011;74199;52.014;5.430;2023-11-21T02:27:56;5.60;;;3.78;;
72483;SDS011;74199;52.014;5.430;2023-11-21T02:30:25;5.30;;;3.83;;
72483;SDS011;74199;52.014;5.430;2023-11-21T02:32:54;6.15;;;3.85;;
72483;SDS011;74199;52.014;5.430;2023-11-21T02:35:24;5.88;;;3.90;;
72483;SDS011;74199;52.014;5.430;2023-11-21T02:37:54;5.70;;;4.32;;
72483;SDS011;74199;52.014;5.430;2023-11-21T02:40:23;7.47;;;4.22;;
72483;SDS011;74199;52.014;5.430;2023-11-21T02:42:52;5.60;;;4.13;;
72483;SDS011;74199;52.014;5.430;2023-11-21T02:45:19;6.50;;;4.45;;
72483;SDS011;74199;52.014;5.430;2023-11-21T02:47:47;6.05;;;3.90;;
72483;SDS011;74199;52.014;5.430;2023-11-21T02:50:19;7.82;;;4.60;;
72483;SDS011;74199;52.014;5.430;2023-11-21T02:52:47;9.02;;;5.03;;
72483;SDS011;74199;52.014;5.430;2023-11-21T02:55:14;6.75;;;4.60;;
72483;SDS011;74199;52.014;5.430;2023-11-21T02:57:41;7.07;;;4.32;;
72483;SDS011;74199;52.014;5.430;2023-11-21T03:00:08;8.27;;;4.45;;
72483;SDS011;74199;52.014;5.430;2023-11-21T03:02:41;6.88;;;4.70;;
72483;SDS011;74199;52.014;5.430;2023-11-21T03:05:09;7.53;;;4.82;;
72483;SDS011;74199;52.014;5.430;2023-11-21T03:07:37;7.65;;;4.60;;
72483;SDS011;74199;52.014;5.430;2023-11-21T03:10:05;7.10;;;4.65;;
72483;SDS011;74199;52.014;5.430;2023-11-21T03:12:37;8.02;;;4.93;;
72483;SDS011;74199;52.014;5.430;2023-11-21T03:15:05;8.50;;;5.07;;
72483;SDS011;74199;52.014;5.430;2023-11-21T03:17:33;7.38;;;4.82;;
72483;SDS011;74199;52.014;5.430;2023-11-21T03:20:03;7.78;;;4.95;;
72483;SDS011;74199;52.014;5.430;2023-11-21T03:22:31;8.35;;;4.97;;
72483;SDS011;74199;52.014;5.430;2023-11-21T03:24:59;8.45;;;4.78;;
72483;SDS011;74199;52.014;5.430;2023-11-21T03:27:26;9.38;;;5.70;;
72483;SDS011;74199;52.014;5.430;2023-11-21T03:29:53;8.70;;;4.70;;
72483;SDS011;74199;52.014;5.430;2023-11-21T03:32:21;9.40;;;5.60;;
72483;SDS011;74199;52.014;5.430;2023-11-21T03:34:54;8.43;;;5.05;;
72483;SDS011;74199;52.014;5.430;2023-11-21T03:37:23;10.05;;;5.75;;
72483;SDS011;74199;52.014;5.430;2023-11-21T03:39:51;9.98;;;5.45;;
72483;SDS011;74199;52.014;5.430;2023-11-21T03:42:18;9.85;;;5.00;;
72483;SDS011;74199;52.014;5.430;2023-11-21T03:44:45;8.32;;;5.28;;
72483;SDS011;74199;52.014;5.430;2023-11-21T03:47:13;9.70;;;5.13;;
72483;SDS011;74199;52.014;5.430;2023-11-21T03:49:40;9.48;;;5.20;;
72483;SDS011;74199;52.014;5.430;2023-11-21T03:52:07;10.35;;;5.50;;
72483;SDS011;74199;52.014;5.430;2023-11-21T03:54:34;8.32;;;5.60;;
72483;SDS011;74199;52.014;5.430;2023-11-21T03:57:01;9.20;;;5.55;;
72483;SDS011;74199;52.014;5.430;2023-11-21T03:59:28;8.18;;;5.07;;
72483;SDS011;74199;52.014;5.430;2023-11-21T04:01:55;9.25;;;5.65;;
72483;SDS011;74199;52.014;5.430;2023-11-21T04:04:23;10.85;;;5.82;;
72483;SDS011;74199;52.014;5.430;2023-11-21T04:06:50;10.63;;;5.60;;
72483;SDS011;74199;52.014;5.430;2023-11-21T04:09:20;10.20;;;5.60;;
72483;SDS011;74199;52.014;5.430;2023-11-21T04:11:50;8.63;;;5.35;;
72483;SDS011;74199;52.014;5.430;2023-11-21T04:14:18;9.52;;;5.35;;
72483;SDS011;74199;52.014;5.430;2023-11-21T04:16:45;8.95;;;5.90;;
72483;SDS011;74199;52.014;5.430;2023-11-21T04:19:12;9.20;;;5.35;;
72483;SDS011;74199;52.014;5.430;2023-11-21T04:21:43;10.73;;;5.70;;
72483;SDS011;74199;52.014;5.430;2023-11-21T04:24:10;9.60;;;5.68;;
72483;SDS011;74199;52.014;5.430;2023-11-21T04:26:37;10.50;;;5.80;;
72483;SDS011;74199;52.014;5.430;2023-11-21T04:29:04;8.98;;;5.07;;
72483;SDS011;74199;52.014;5.430;2023-11-21T04:31:31;10.23;;;5.70;;
72483;SDS011;74199;52.014;5.430;2023-11-21T04:33:58;9.73;;;5.50;;
72483;SDS011;74199;52.014;5.430;2023-11-21T04:36:25;11.00;;;4.95;;
72483;SDS011;74199;52.014;5.430;2023-11-21T04:38:52;7.63;;;5.30;;
72483;SDS011;74199;52.014;5.430;2023-11-21T04:41:19;9.43;;;5.18;;
72483;SDS011;74199;52.014;5.430;2023-11-21T04:43:46;8.88;;;5.78;;
72483;SDS011;74199;52.014;5.430;2023-11-21T04:46:13;9.18;;;5.68;;
72483;SDS011;74199;52.014;5.430;2023-11-21T04:48:40;11.43;;;5.63;;
72483;SDS011;74199;52.014;5.430;2023-11-21T04:51:07;8.48;;;5.40;;
72483;SDS011;74199;52.014;5.430;2023-11-21T04:53:34;11.15;;;5.55;;
72483;SDS011;74199;52.014;5.430;2023-11-21T04:56:01;9.10;;;5.82;;
72483;SDS011;74199;52.014;5.430;2023-11-21T04:58:29;7.95;;;5.68;;
72483;SDS011;74199;52.014;5.430;2023-11-21T05:00:57;8.57;;;5.53;;
72483;SDS011;74199;52.014;5.430;2023-11-21T05:03:24;9.98;;;5.72;;
72483;SDS011;74199;52.014;5.430;2023-11-21T05:05:51;10.43;;;5.47;;
72483;SDS011;74199;52.014;5.430;2023-11-21T05:08:18;9.50;;;5.55;;
72483;SDS011;74199;52.014;5.430;2023-11-21T05:10:46;9.85;;;5.45;;
72483;SDS011;74199;52.014;5.430;2023-11-21T05:13:14;10.73;;;5.68;;
72483;SDS011;74199;52.014;5.430;2023-11-21T05:15:44;10.25;;;5.43;;
72483;SDS011;74199;52.014;5.430;2023-11-21T05:18:11;10.13;;;5.68;;
72483;SDS011;74199;52.014;5.430;2023-11-21T05:20:40;10.57;;;5.15;;
72483;SDS011;74199;52.014;5.430;2023-11-21T05:23:08;8.32;;;5.35;;
72483;SDS011;74199;52.014;5.430;2023-11-21T05:25:35;9.00;;;5.65;;
72483;SDS011;74199;52.014;5.430;2023-11-21T05:28:06;8.65;;;5.40;;
72483;SDS011;74199;52.014;5.430;2023-11-21T05:30:33;9.18;;;5.53;;
72483;SDS011;74199;52.014;5.430;2023-11-21T05:33:00;10.80;;;5.75;;
72483;SDS011;74199;52.014;5.430;2023-11-21T05:35:27;10.50;;;5.32;;
72483;SDS011;74199;52.014;5.430;2023-11-21T05:37:54;8.27;;;5.63;;
72483;SDS011;74199;52.014;5.430;2023-11-21T05:40:21;8.10;;;5.57;;
72483;SDS011;74199;52.014;5.430;2023-11-21T05:42:49;10.73;;;5.40;;
72483;SDS011;74199;52.014;5.430;2023-11-21T05:45:18;9.18;;;5.50;;
72483;SDS011;74199;52.014;5.430;2023-11-21T05:47:45;9.52;;;5.68;;
72483;SDS011;74199;52.014;5.430;2023-11-21T05:50:14;11.55;;;5.75;;
72483;SDS011;74199;52.014;5.430;2023-11-21T05:52:44;10.02;;;5.35;;
72483;SDS011;74199;52.014;5.430;2023-11-21T05:55:12;13.23;;;5.90;;
72483;SDS011;74199;52.014;5.430;2023-11-21T05:57:40;12.10;;;5.07;;
72483;SDS011;74199;52.014;5.430;2023-11-21T06:00:09;9.80;;;5.90;;
72483;SDS011;74199;52.014;5.430;2023-11-21T06:02:49;10.30;;;5.30;;
72483;SDS011;74199;52.014;5.430;2023-11-21T06:05:24;8.65;;;5.30;;
72483;SDS011;74199;52.014;5.430;2023-11-21T06:07:53;10.23;;;5.65;;
72483;SDS011;74199;52.014;5.430;2023-11-21T06:10:21;9.55;;;5.57;;
72483;SDS011;74199;52.014;5.430;2023-11-21T06:12:50;9.82;;;5.00;;
72483;SDS011;74199;52.014;5.430;2023-11-21T06:15:18;9.27;;;4.85;;
72483;SDS011;74199;52.014;5.430;2023-11-21T06:17:47;8.57;;;4.93;;
72483;SDS011;74199;52.014;5.430;2023-11-21T06:20:19;10.10;;;4.72;;
72483;SDS011;74199;52.014;5.430;2023-11-21T06:22:47;11.07;;;4.88;;
72483;SDS011;74199;52.014;5.430;2023-11-21T06:25:15;10.90;;;5.32;;
72483;SDS011;74199;52.014;5.430;2023-11-21T06:27:44;10.68;;;5.80;;
72483;SDS011;74199;52.014;5.430;2023-11-21T06:30:12;15.48;;;8.40;;
72483;SDS011;74199;52.014;5.430;2023-11-21T06:32:40;15.38;;;7.88;;
72483;SDS011;74199;52.014;5.430;2023-11-21T06:35:12;13.88;;;6.30;;
72483;SDS011;74199;52.014;5.430;2023-11-21T06:37:39;9.88;;;5.72;;
72483;SDS011;74199;52.014;5.430;2023-11-21T06:40:06;13.30;;;5.90;;
72483;SDS011;74199;52.014;5.430;2023-11-21T06:42:36;22.77;;;6.18;;
72483;SDS011;74199;52.014;5.430;2023-11-21T06:45:04;11.48;;;5.97;;
72483;SDS011;74199;52.014;5.430;2023-11-21T06:47:32;14.05;;;6.35;;
72483;SDS011;74199;52.014;5.430;2023-11-21T06:49:59;13.73;;;5.75;;
72483;SDS011;74199;52.014;5.430;2023-11-21T06:52:27;18.75;;;6.82;;
72483;SDS011;74199;52.014;5.430;2023-11-21T06:54:54;16.75;;;6.25;;
72483;SDS011;74199;52.014;5.430;2023-11-21T06:57:22;14.27;;;6.05;;
72483;SDS011;74199;52.014;5.430;2023-11-21T06:59:50;15.02;;;6.00;;
72483;SDS011;74199;52.014;5.430;2023-11-21T07:02:16;21.23;;;6.45;;
72483;SDS011;74199;52.014;5.430;2023-11-21T07:04:45;18.13;;;6.68;;
72483;SDS011;74199;52.014;5.430;2023-11-21T07:07:13;14.05;;;6.47;;
72483;SDS011;74199;52.014;5.430;2023-11-21T07:09:39;14.52;;;6.30;;
72483;SDS011;74199;52.014;5.430;2023-11-21T07:12:06;16.05;;;7.00;;
72483;SDS011;74199;52.014;5.430;2023-11-21T07:14:34;9.98;;;5.55;;
72483;SDS011;74199;52.014;5.430;2023-11-21T07:17:01;14.70;;;5.75;;
72483;SDS011;74199;52.014;5.430;2023-11-21T07:19:28;14.65;;;5.88;;
72483;SDS011;74199;52.014;5.430;2023-11-21T07:21:56;11.68;;;5.47;;
72483;SDS011;74199;52.014;5.430;2023-11-21T07:24:23;12.38;;;5.68;;
72483;SDS011;74199;52.014;5.430;2023-11-21T07:26:52;13.35;;;5.57;;
72483;SDS011;74199;52.014;5.430;2023-11-21T07:29:23;11.27;;;5.45;;
72483;SDS011;74199;52.014;5.430;2023-11-21T07:31:56;11.27;;;5.47;;
72483;SDS011;74199;52.014;5.430;2023-11-21T07:34:23;10.18;;;4.22;;
72483;SDS011;74199;52.014;5.430;2023-11-21T07:36:50;14.95;;;5.40;;
72483;SDS011;74199;52.014;5.430;2023-11-21T07:39:17;11.75;;;5.47;;
72483;SDS011;74199;52.014;5.430;2023-11-21T07:41:44;12.45;;;5.30;;
72483;SDS011;74199;52.014;5.430;2023-11-21T07:44:15;14.63;;;5.70;;
72483;SDS011;74199;52.014;5.430;2023-11-21T07:46:43;13.30;;;5.65;;
72483;SDS011;74199;52.014;5.430;2023-11-21T07:49:11;14.98;;;5.60;;
72483;SDS011;74199;52.014;5.430;2023-11-21T07:51:38;13.20;;;5.68;;
72483;SDS011;74199;52.014;5.430;2023-11-21T07:54:05;13.40;;;5.40;;
72483;SDS011;74199;52.014;5.430;2023-11-21T07:56:32;12.15;;;5.70;;
72483;SDS011;74199;52.014;5.430;2023-11-21T07:58:59;11.65;;;5.93;;
72483;SDS011;74199;52.014;5.430;2023-11-21T08:01:26;12.55;;;5.32;;
72483;SDS011;74199;52.014;5.430;2023-11-21T08:03:54;12.20;;;5.28;;
72483;SDS011;74199;52.014;5.430;2023-11-21T08:06:23;12.35;;;5.80;;
72483;SDS011;74199;52.014;5.430;2023-11-21T08:08:52;13.65;;;5.68;;
72483;SDS011;74199;52.014;5.430;2023-11-21T08:11:18;10.48;;;4.75;;
72483;SDS011;74199;52.014;5.430;2023-11-21T08:13:48;12.02;;;5.80;;
72483;SDS011;74199;52.014;5.430;2023-11-21T08:16:15;11.73;;;5.43;;
72483;SDS011;74199;52.014;5.430;2023-11-21T08:18:43;10.48;;;5.90;;
72483;SDS011;74199;52.014;5.430;2023-11-21T08:21:12;14.05;;;5.47;;
72483;SDS011;74199;52.014;5.430;2023-11-21T08:23:39;15.88;;;5.55;;
72483;SDS011;74199;52.014;5.430;2023-11-21T08:26:06;13.95;;;6.05;;
72483;SDS011;74199;52.014;5.430;2023-11-21T08:28:35;12.55;;;5.68;;
72483;SDS011;74199;52.014;5.430;2023-11-21T08:31:02;17.23;;;5.57;;
72483;SDS011;74199;52.014;5.430;2023-11-21T08:33:30;13.63;;;5.63;;
72483;SDS011;74199;52.014;5.430;2023-11-21T08:35:57;9.95;;;5.57;;
72483;SDS011;74199;52.014;5.430;2023-11-21T08:38:24;11.25;;;5.78;;
72483;SDS011;74199;52.014;5.430;2023-11-21T08:40:51;9.93;;;4.95;;
72483;SDS011;74199;52.014;5.430;2023-11-21T08:43:18;13.40;;;5.40;;
72483;SDS011;74199;52.014;5.430;2023-11-21T08:45:46;12.65;;;5.45;;
72483;SDS011;74199;52.014;5.430;2023-11-21T08:48:13;8.73;;;4.95;;
72483;SDS011;74199;52.014;5.430;2023-11-21T08:50:40;10.70;;;4.57;;
72483;SDS011;74199;52.014;5.430;2023-11-21T08:53:07;13.07;;;4.70;;
72483;SDS011;74199;52.014;5.430;2023-11-21T08:55:34;10.82;;;4.80;;
72483;SDS011;74199;52.014;5.430;2023-11-21T08:58:04;10.75;;;4.65;;
72483;SDS011;74199;52.014;5.430;2023-11-21T09:00:32;9.85;;;4.10;;
72483;SDS011;74199;52.014;5.430;2023-11-21T09:03:00;12.18;;;4.38;;
72483;SDS011;74199;52.014;5.430;2023-11-21T09:05:29;10.60;;;4.75;;
72483;SDS011;74199;52.014;5.430;2023-11-21T09:07:56;8.60;;;3.75;;
72483;SDS011;74199;52.014;5.430;2023-11-21T09:10:23;10.82;;;4.82;;
72483;SDS011;74199;52.014;5.430;2023-11-21T09:12:52;8.10;;;3.90;;
72483;SDS011;74199;52.014;5.430;2023-11-21T09:15:19;8.20;;;3.80;;
72483;SDS011;74199;52.014;5.430;2023-11-21T09:17:47;10.80;;;4.40;;
72483;SDS011;74199;52.014;5.430;2023-11-21T09:20:15;10.50;;;3.97;;
72483;SDS011;74199;52.014;5.430;2023-11-21T09:22:42;8.13;;;3.63;;
72483;SDS011;74199;52.014;5.430;2023-11-21T09:25:11;8.70;;;3.58;;
72483;SDS011;74199;52.014;5.430;2023-11-21T09:27:39;8.25;;;3.70;;
72483;SDS011;74199;52.014;5.430;2023-11-21T09:30:06;7.05;;;3.38;;
72483;SDS011;74199;52.014;5.430;2023-11-21T09:32:40;10.52;;;3.72;;
72483;SDS011;74199;52.014;5.430;2023-11-21T09:35:07;5.60;;;3.28;;
72483;SDS011;74199;52.014;5.430;2023-11-21T09:37:35;9.95;;;4.05;;
72483;SDS011;74199;52.014;5.430;2023-11-21T09:40:02;10.63;;;2.97;;
72483;SDS011;74199;52.014;5.430;2023-11-21T09:42:34;8.18;;;3.58;;
72483;SDS011;74199;52.014;5.430;2023-11-21T09:45:05;7.68;;;3.33;;
72483;SDS011;74199;52.014;5.430;2023-11-21T09:47:35;7.10;;;3.10;;
72483;SDS011;74199;52.014;5.430;2023-11-21T09:50:04;7.00;;;3.72;;
72483;SDS011;74199;52.014;5.430;2023-11-21T09:52:38;6.13;;;3.20;;
72483;SDS011;74199;52.014;5.430;2023-11-21T09:55:16;6.03;;;3.40;;
72483;SDS011;74199;52.014;5.430;2023-11-21T09:57:47;7.10;;;3.42;;
72483;SDS011;74199;52.014;5.430;2023-11-21T10:00:15;6.65;;;3.40;;
72483;SDS011;74199;52.014;5.430;2023-11-21T10:02:44;6.85;;;3.03;;
72483;SDS011;74199;52.014;5.430;2023-11-21T10:05:11;7.57;;;3.75;;
72483;SDS011;74199;52.014;5.430;2023-11-21T10:07:39;5.53;;;3.10;;
72483;SDS011;74199;52.014;5.430;2023-11-21T10:10:08;7.90;;;3.65;;
72483;SDS011;74199;52.014;5.430;2023-11-21T10:12:35;8.82;;;3.78;;
72483;SDS011;74199;52.014;5.430;2023-11-21T10:15:07;5.75;;;3.60;;
72483;SDS011;74199;52.014;5.430;2023-11-21T10:17:38;6.57;;;3.90;;
72483;SDS011;74199;52.014;5.430;2023-11-21T10:20:11;8.30;;;4.20;;
72483;SDS011;74199;52.014;5.430;2023-11-21T10:22:40;7.82;;;4.07;;
72483;SDS011;74199;52.014;5.430;2023-11-21T10:25:11;8.25;;;4.85;;
72483;SDS011;74199;52.014;5.430;2023-11-21T10:27:41;7.60;;;3.88;;
72483;SDS011;74199;52.014;5.430;2023-11-21T10:30:08;7.65;;;4.13;;
72483;SDS011;74199;52.014;5.430;2023-11-21T10:32:39;6.57;;;3.72;;
72483;SDS011;74199;52.014;5.430;2023-11-21T10:35:07;6.97;;;4.20;;
72483;SDS011;74199;52.014;5.430;2023-11-21T10:37:38;8.15;;;3.70;;
72483;SDS011;74199;52.014;5.430;2023-11-21T10:40:09;7.30;;;3.63;;
72483;SDS011;74199;52.014;5.430;2023-11-21T10:42:39;8.93;;;4.30;;
72483;SDS011;74199;52.014;5.430;2023-11-21T10:45:08;7.15;;;4.20;;
72483;SDS011;74199;52.014;5.430;2023-11-21T10:47:43;7.25;;;4.22;;
72483;SDS011;74199;52.014;5.430;2023-11-21T10:50:10;6.82;;;3.67;;
72483;SDS011;74199;52.014;5.430;2023-11-21T10:52:41;7.38;;;4.18;;
72483;SDS011;74199;52.014;5.430;2023-11-21T10:55:19;6.55;;;3.72;;
72483;SDS011;74199;52.014;5.430;2023-11-21T10:57:49;5.93;;;3.70;;
72483;SDS011;74199;52.014;5.430;2023-11-21T11:00:19;7.25;;;3.80;;
72483;SDS011;74199;52.014;5.430;2023-11-21T11:02:50;8.65;;;4.10;;
72483;SDS011;74199;52.014;5.430;2023-11-21T11:05:21;7.63;;;4.07;;
72483;SDS011;74199;52.014;5.430;2023-11-21T11:08:13;5.50;;;3.40;;
72483;SDS011;74199;52.014;5.430;2023-11-21T11:10:45;7.45;;;3.88;;
72483;SDS011;74199;52.014;5.430;2023-11-21T11:13:15;6.93;;;3.90;;
72483;SDS011;74199;52.014;5.430;2023-11-21T11:15:43;6.68;;;3.65;;
72483;SDS011;74199;52.014;5.430;2023-11-21T11:18:14;7.28;;;3.53;;
72483;SDS011;74199;52.014;5.430;2023-11-21T11:20:42;9.15;;;4.03;;
72483;SDS011;74199;52.014;5.430;2023-11-21T11:26:18;6.43;;;3.83;;
72483;SDS011;74199;52.014;5.430;2023-11-21T11:28:49;6.38;;;3.40;;
72483;SDS011;74199;52.014;5.430;2023-11-21T11:34:36;9.18;;;4.00;;
72483;SDS011;74199;52.014;5.430;2023-11-21T11:37:12;7.93;;;3.88;;
72483;SDS011;74199;52.014;5.430;2023-11-21T11:39:40;8.18;;;4.05;;
72483;SDS011;74199;52.014;5.430;2023-11-21T11:42:14;8.23;;;3.58;;
72483;SDS011;74199;52.014;5.430;2023-11-21T11:47:25;6.15;;;4.18;;
72483;SDS011;74199;52.014;5.430;2023-11-21T11:55:08;9.18;;;3.97;;
72483;SDS011;74199;52.014;5.430;2023-11-21T11:57:36;14.20;;;4.22;;
72483;SDS011;74199;52.014;5.430;2023-11-21T12:00:08;9.30;;;3.60;;
72483;SDS011;74199;52.014;5.430;2023-11-21T12:02:40;6.80;;;3.92;;
72483;SDS011;74199;52.014;5.430;2023-11-21T12:05:11;8.32;;;3.65;;
72483;SDS011;74199;52.014;5.430;2023-11-21T12:07:43;8.95;;;4.78;;
72483;SDS011;74199;52.014;5.430;2023-11-21T12:10:22;6.60;;;3.40;;
72483;SDS011;74199;52.014;5.430;2023-11-21T12:12:52;10.60;;;4.10;;
72483;SDS011;74199;52.014;5.430;2023-11-21T12:15:22;7.70;;;3.70;;
72483;SDS011;74199;52.014;5.430;2023-11-21T12:17:49;9.48;;;4.05;;
72483;SDS011;74199;52.014;5.430;2023-11-21T12:20:20;8.40;;;4.13;;
72483;SDS011;74199;52.014;5.430;2023-11-21T12:22:51;7.25;;;3.95;;
72483;SDS011;74199;52.014;5.430;2023-11-21T12:25:20;8.32;;;4.38;;
72483;SDS011;74199;52.014;5.430;2023-11-21T12:27:55;10.25;;;4.57;;
72483;SDS011;74199;52.014;5.430;2023-11-21T12:30:27;10.40;;;4.47;;
72483;SDS011;74199;52.014;5.430;2023-11-21T12:32:57;6.90;;;4.18;;
72483;SDS011;74199;52.014;5.430;2023-11-21T12:35:31;6.43;;;4.03;;
72483;SDS011;74199;52.014;5.430;2023-11-21T12:38:02;7.70;;;3.83;;
72483;SDS011;74199;52.014;5.430;2023-11-21T12:40:35;6.80;;;4.30;;
72483;SDS011;74199;52.014;5.430;2023-11-21T12:43:02;9.98;;;5.03;;
72483;SDS011;74199;52.014;5.430;2023-11-21T12:45:31;8.38;;;4.43;;
72483;SDS011;74199;52.014;5.430;2023-11-21T12:48:01;11.02;;;4.90;;
72483;SDS011;74199;52.014;5.430;2023-11-21T12:50:34;8.77;;;4.15;;
72483;SDS011;74199;52.014;5.430;2023-11-21T12:53:09;8.13;;;4.32;;
72483;SDS011;74199;52.014;5.430;2023-11-21T12:55:40;9.88;;;4.55;;
72483;SDS011;74199;52.014;5.430;2023-11-21T12:58:09;6.40;;;3.53;;
72483;SDS011;74199;52.014;5.430;2023-11-21T13:00:47;9.27;;;3.65;;
72483;SDS011;74199;52.014;5.430;2023-11-21T13:03:16;9.57;;;3.95;;
72483;SDS011;74199;52.014;5.430;2023-11-21T13:05:46;8.48;;;4.25;;
72483;SDS011;74199;52.014;5.430;2023-11-21T13:08:19;7.88;;;4.15;;
72483;SDS011;74199;52.014;5.430;2023-11-21T13:10:53;9.15;;;4.18;;
72483;SDS011;74199;52.014;5.430;2023-11-21T13:13:24;8.18;;;4.70;;
72483;SDS011;74199;52.014;5.430;2023-11-21T13:15:58;8.45;;;4.65;;
72483;SDS011;74199;52.014;5.430;2023-11-21T13:18:34;7.45;;;4.15;;
72483;SDS011;74199;52.014;5.430;2023-11-21T13:21:02;8.07;;;4.28;;
72483;SDS011;74199;52.014;5.430;2023-11-21T13:23:40;8.45;;;4.53;;
72483;SDS011;74199;52.014;5.430;2023-11-21T13:26:08;8.35;;;4.55;;
72483;SDS011;74199;52.014;5.430;2023-11-21T13:28:36;9.43;;;4.68;;
72483;SDS011;74199;52.014;5.430;2023-11-21T13:31:05;8.52;;;4.22;;
72483;SDS011;74199;52.014;5.430;2023-11-21T13:33:49;9.43;;;4.03;;
72483;SDS011;74199;52.014;5.430;2023-11-21T13:36:31;9.07;;;4.75;;
72483;SDS011;74199;52.014;5.430;2023-11-21T13:39:02;8.75;;;4.60;;
72483;SDS011;74199;52.014;5.430;2023-11-21T13:41:31;9.20;;;4.18;;
72483;SDS011;74199;52.014;5.430;2023-11-21T13:43:58;7.68;;;4.63;;
72483;SDS011;74199;52.014;5.430;2023-11-21T13:46:40;8.18;;;4.18;;
72483;SDS011;74199;52.014;5.430;2023-11-21T13:49:08;7.70;;;4.25;;
72483;SDS011;74199;52.014;5.430;2023-11-21T13:51:36;7.57;;;4.45;;
72483;SDS011;74199;52.014;5.430;2023-11-21T13:54:08;9.02;;;4.32;;
72483;SDS011;74199;52.014;5.430;2023-11-21T13:56:37;8.57;;;4.15;;
72483;SDS011;74199;52.014;5.430;2023-11-21T13:59:06;6.40;;;3.78;;
72483;SDS011;74199;52.014;5.430;2023-11-21T14:01:48;6.90;;;3.50;;
72483;SDS011;74199;52.014;5.430;2023-11-21T14:04:24;7.10;;;4.22;;
72483;SDS011;74199;52.014;5.430;2023-11-21T14:07:10;7.13;;;3.95;;
72483;SDS011;74199;52.014;5.430;2023-11-21T14:09:49;7.68;;;4.45;;
72483;SDS011;74199;52.014;5.430;2023-11-21T14:12:16;6.20;;;3.75;;
72483;SDS011;74199;52.014;5.430;2023-11-21T14:14:43;9.85;;;4.22;;
72483;SDS011;74199;52.014;5.430;2023-11-21T14:17:11;8.95;;;3.25;;
72483;SDS011;74199;52.014;5.430;2023-11-21T14:19:38;5.38;;;3.17;;
72483;SDS011;74199;52.014;5.430;2023-11-21T14:22:10;8.77;;;3.75;;
72483;SDS011;74199;52.014;5.430;2023-11-21T14:24:37;5.82;;;3.22;;
72483;SDS011;74199;52.014;5.430;2023-11-21T14:27:07;5.85;;;3.05;;
72483;SDS011;74199;52.014;5.430;2023-11-21T14:29:35;6.22;;;3.28;;
72483;SDS011;74199;52.014;5.430;2023-11-21T14:32:06;8.25;;;3.72;;
72483;SDS011;74199;52.014;5.430;2023-11-21T14:34:34;5.35;;;3.25;;
72483;SDS011;74199;52.014;5.430;2023-11-21T14:37:01;11.45;;;3.85;;
72483;SDS011;74199;52.014;5.430;2023-11-21T14:39:31;6.63;;;3.80;;
72483;SDS011;74199;52.014;5.430;2023-11-21T14:42:04;6.28;;;3.72;;
72483;SDS011;74199;52.014;5.430;2023-11-21T14:44:31;13.80;;;3.88;;
72483;SDS011;74199;52.014;5.430;2023-11-21T14:47:04;7.03;;;4.25;;
72483;SDS011;74199;52.014;5.430;2023-11-21T14:49:39;8.15;;;3.95;;
72483;SDS011;74199;52.014;5.430;2023-11-21T14:52:19;7.78;;;4.20;;
72483;SDS011;74199;52.014;5.430;2023-11-21T14:55:06;8.82;;;4.30;;
72483;SDS011;74199;52.014;5.430;2023-11-21T14:57:48;10.07;;;5.22;;
72483;SDS011;74199;52.014;5.430;2023-11-21T15:00:19;11.32;;;5.28;;
72483;SDS011;74199;52.014;5.430;2023-11-21T15:02:59;12.90;;;5.00;;
72483;SDS011;74199;52.014;5.430;2023-11-21T15:05:27;7.38;;;4.22;;
72483;SDS011;74199;52.014;5.430;2023-11-21T15:07:55;9.52;;;4.68;;
72483;SDS011;74199;52.014;5.430;2023-11-21T15:10:24;9.30;;;5.40;;